createdAt,value
2023-02-06T00:01:24.502Z,13.57
2023-02-06T00:03:51.006Z,14.48
2023-02-06T00:06:17.680Z,10.95
2023-02-06T00:08:44.351Z,9.35
2023-02-06T00:11:13.884Z,8.10
2023-02-06T00:13:40.448Z,7.93
2023-02-06T00:16:19.557Z,7.32
2023-02-06T00:18:46.355Z,7.77
2023-02-06T00:21:13.329Z,7.70
2023-02-06T00:23:40.234Z,8.00
2023-02-06T00:26:07.795Z,7.45
2023-02-06T00:28:34.878Z,8.00
2023-02-06T00:31:01.452Z,7.60
2023-02-06T00:33:28.013Z,7.15
2023-02-06T00:35:54.515Z,7.03
2023-02-06T00:38:21.061Z,6.30
2023-02-06T00:40:47.705Z,7.32
2023-02-06T00:43:14.576Z,6.97
2023-02-06T00:45:41.223Z,7.78
2023-02-06T00:48:09.194Z,17.40
2023-02-06T00:50:36.096Z,33.45
2023-02-06T00:53:02.645Z,32.20
2023-02-06T00:55:29.131Z,31.35
2023-02-06T00:57:55.617Z,24.33
2023-02-06T01:00:22.236Z,20.25
2023-02-06T01:02:48.747Z,15.20
2023-02-06T01:05:15.245Z,19.08
2023-02-06T01:07:41.763Z,16.58
2023-02-06T01:10:09.323Z,16.20
2023-02-06T01:12:36.876Z,12.45
2023-02-06T01:15:08.959Z,9.98
2023-02-06T01:17:36.116Z,8.20
2023-02-06T01:20:02.801Z,8.07
2023-02-06T01:22:29.291Z,7.63
2023-02-06T01:24:55.803Z,9.82
2023-02-06T01:27:22.343Z,10.68
2023-02-06T01:29:48.831Z,8.68
2023-02-06T01:32:15.369Z,9.50
2023-02-06T01:34:42.038Z,8.75
2023-02-06T01:37:08.492Z,9.23
2023-02-06T01:39:35.022Z,9.38
2023-02-06T01:42:01.585Z,9.00
2023-02-06T01:44:28.326Z,8.40
2023-02-06T01:46:57.072Z,7.78
2023-02-06T01:49:26.390Z,7.15
2023-02-06T01:51:59.378Z,9.15
2023-02-06T01:54:26.693Z,9.25
2023-02-06T01:56:56.644Z,7.70
2023-02-06T02:01:50.680Z,8.48
2023-02-06T02:04:20.203Z,8.27
2023-02-06T02:06:58.527Z,7.85
2023-02-06T02:09:25.828Z,8.90
2023-02-06T02:11:52.326Z,9.00
2023-02-06T02:14:18.839Z,9.45
2023-02-06T02:17:03.138Z,8.93
2023-02-06T02:19:48.115Z,7.35
2023-02-06T02:22:45.579Z,8.35
2023-02-06T02:25:24.071Z,8.30
2023-02-06T02:28:20.951Z,7.82
2023-02-06T02:31:19.853Z,8.70
2023-02-06T02:34:23.808Z,8.30
2023-02-06T02:37:34.980Z,7.97
2023-02-06T02:40:45.751Z,7.82
2023-02-06T02:43:49.545Z,8.07
2023-02-06T02:46:34.328Z,7.00
2023-02-06T02:49:12.443Z,8.07
2023-02-06T02:51:40.659Z,7.32
2023-02-06T02:54:08.103Z,7.32
2023-02-06T02:56:35.374Z,7.88
2023-02-06T02:59:10.757Z,7.82
2023-02-06T03:01:43.810Z,7.90
2023-02-06T03:04:18.038Z,8.18
2023-02-06T03:06:56.550Z,8.13
2023-02-06T03:09:40.082Z,8.25
2023-02-06T03:12:09.472Z,7.65
2023-02-06T03:14:59.930Z,8.90
2023-02-06T03:17:35.035Z,7.38
2023-02-06T03:20:05.015Z,9.30
2023-02-06T03:25:01.477Z,7.40
2023-02-06T03:27:29.985Z,8.63
2023-02-06T03:29:59.331Z,8.52
2023-02-06T03:32:30.432Z,7.60
2023-02-06T03:35:08.240Z,8.20
2023-02-06T03:37:35.752Z,8.73
2023-02-06T03:40:03.650Z,7.55
2023-02-06T03:42:33.709Z,8.57
2023-02-06T03:45:17.180Z,7.35
2023-02-06T03:47:46.444Z,7.22
2023-02-06T03:50:14.127Z,6.68
2023-02-06T03:52:46.508Z,8.35
2023-02-06T03:55:19.425Z,6.63
2023-02-06T03:57:51.435Z,8.00
2023-02-06T04:00:18.712Z,7.75
2023-02-06T04:02:49.700Z,7.25
2023-02-06T04:05:18.283Z,7.25
2023-02-06T04:07:44.979Z,7.82
2023-02-06T04:10:11.923Z,6.78
2023-02-06T04:12:38.830Z,7.85
2023-02-06T04:15:05.851Z,8.75
2023-02-06T04:17:49.732Z,8.93
2023-02-06T04:20:19.977Z,9.02
2023-02-06T04:22:47.056Z,8.27
2023-02-06T04:25:13.571Z,7.75
2023-02-06T04:27:40.080Z,8.25
2023-02-06T04:30:07.223Z,8.43
2023-02-06T04:32:33.716Z,8.60
2023-02-06T04:35:00.212Z,7.95
2023-02-06T04:37:26.712Z,8.68
2023-02-06T04:39:53.193Z,8.10
2023-02-06T04:42:19.711Z,7.53
2023-02-06T04:44:46.223Z,8.95
2023-02-06T04:47:12.872Z,8.57
2023-02-06T04:49:39.351Z,8.43
2023-02-06T04:52:06.053Z,9.00
2023-02-06T04:54:32.887Z,8.10
2023-02-06T04:56:59.508Z,7.93
2023-02-06T04:59:26.214Z,7.85
2023-02-06T05:01:52.713Z,8.93
2023-02-06T05:19:03.443Z,8.00
2023-02-06T05:21:30.028Z,8.73
2023-02-06T05:23:56.541Z,9.88
2023-02-06T05:26:23.071Z,9.98
2023-02-06T05:28:49.577Z,8.23
2023-02-06T05:31:19.877Z,7.88
2023-02-06T05:33:50.490Z,9.32
2023-02-06T05:36:19.873Z,12.68
2023-02-06T05:38:47.114Z,11.85
2023-02-06T05:41:14.281Z,11.00
2023-02-06T05:43:40.951Z,10.85
2023-02-06T05:46:07.590Z,10.27
2023-02-06T05:48:34.926Z,9.57
2023-02-06T05:51:01.929Z,8.82
2023-02-06T05:53:28.494Z,9.77
2023-02-06T05:55:55.520Z,8.68
2023-02-06T05:58:22.019Z,9.20
2023-02-06T06:00:48.564Z,9.30
2023-02-06T06:03:15.063Z,13.57
2023-02-06T06:05:41.623Z,14.27
2023-02-06T06:08:08.314Z,13.35
2023-02-06T06:10:34.890Z,12.80
2023-02-06T06:13:01.388Z,11.68
2023-02-06T06:15:27.965Z,13.15
2023-02-06T06:17:54.521Z,11.63
2023-02-06T06:20:21.047Z,10.55
2023-02-06T06:22:47.534Z,9.25
2023-02-06T06:25:14.069Z,10.73
2023-02-06T06:27:40.616Z,10.95
2023-02-06T06:30:07.838Z,8.98
2023-02-06T06:32:34.450Z,9.60
2023-02-06T06:35:00.955Z,9.82
2023-02-06T06:37:27.430Z,9.95
2023-02-06T06:39:53.892Z,11.95
2023-02-06T06:42:20.391Z,16.33
2023-02-06T06:49:04.325Z,13.90
2023-02-06T06:51:30.856Z,14.02
2023-02-06T06:53:57.484Z,12.95
2023-02-06T06:56:24.118Z,10.93
2023-02-06T06:58:50.880Z,9.77
2023-02-06T07:01:18.584Z,9.27
2023-02-06T07:03:47.081Z,8.38
2023-02-06T07:06:13.607Z,9.55
2023-02-06T07:08:42.045Z,9.20
2023-02-06T07:11:10.412Z,9.50
2023-02-06T07:13:36.951Z,9.27
2023-02-06T07:16:03.766Z,10.82
2023-02-06T07:18:30.474Z,10.57
2023-02-06T07:20:56.981Z,9.85
2023-02-06T07:23:23.511Z,9.75
2023-02-06T07:25:50.158Z,10.30
2023-02-06T07:28:16.699Z,10.10
2023-02-06T07:30:43.666Z,11.40
2023-02-06T07:38:03.733Z,10.40
2023-02-06T07:40:43.213Z,9.98
2023-02-06T15:58:59.661Z,7.60
2023-02-06T16:01:30.488Z,7.32
2023-02-06T16:04:02.017Z,6.82
2023-02-06T16:06:28.688Z,8.23
2023-02-06T16:08:58.348Z,8.50
2023-02-06T16:11:46.186Z,7.50
2023-02-06T16:14:30.524Z,10.10
2023-02-06T16:17:12.341Z,10.95
2023-02-06T16:19:48.428Z,11.65
2023-02-06T16:22:21.076Z,10.48
2023-02-06T16:24:48.635Z,9.75
2023-02-06T16:27:19.826Z,9.75
2023-02-06T16:29:50.068Z,7.60
2023-02-06T16:32:31.698Z,8.25
2023-02-06T16:35:01.175Z,9.00
2023-02-06T16:37:30.009Z,8.18
2023-02-06T16:39:56.634Z,7.05
2023-02-06T16:42:33.886Z,8.18
2023-02-06T16:45:05.558Z,8.48
2023-02-06T16:47:32.127Z,8.50
2023-02-06T16:49:58.664Z,7.70
2023-02-06T16:52:29.052Z,9.55
2023-02-06T16:54:58.921Z,8.02
2023-02-06T16:57:46.578Z,8.27
2023-02-06T17:00:20.583Z,9.75
2023-02-06T17:02:47.973Z,8.85
2023-02-06T17:05:15.321Z,8.68
2023-02-06T17:07:42.503Z,8.05
2023-02-06T17:10:10.339Z,9.07
2023-02-06T17:12:37.108Z,6.95
2023-02-06T17:15:04.377Z,8.25
2023-02-06T17:17:31.260Z,8.35
2023-02-06T17:19:58.013Z,8.13
2023-02-06T17:22:24.683Z,9.75
2023-02-06T17:24:51.399Z,8.98
2023-02-06T17:27:20.821Z,8.02
2023-02-06T17:29:48.120Z,12.57
2023-02-06T17:32:16.161Z,12.73
2023-02-06T17:34:42.906Z,13.20
2023-02-06T17:37:20.445Z,12.25
2023-02-06T17:39:48.956Z,10.73
2023-02-06T17:42:15.734Z,10.18
2023-02-06T17:44:42.799Z,10.45
2023-02-06T17:47:09.516Z,11.73
2023-02-06T17:49:39.454Z,10.45
2023-02-06T17:52:05.956Z,10.50
2023-02-06T17:54:32.705Z,8.80
2023-02-06T17:56:59.354Z,9.70
2023-02-06T17:59:36.532Z,9.38
2023-02-06T18:02:03.104Z,9.95
2023-02-06T18:04:29.765Z,10.30
2023-02-06T18:06:56.305Z,9.77
2023-02-06T18:09:22.903Z,9.38
2023-02-06T18:11:49.473Z,9.07
2023-02-06T18:14:15.994Z,10.13
2023-02-06T18:16:42.937Z,13.02
2023-02-06T18:19:10.477Z,12.18
2023-02-06T18:21:36.982Z,11.27
2023-02-06T18:24:03.607Z,11.25
2023-02-06T18:26:30.180Z,9.48
2023-02-06T18:28:56.694Z,9.88
2023-02-06T18:31:35.391Z,9.02
2023-02-06T18:34:07.691Z,10.32
2023-02-06T18:36:36.230Z,10.15
2023-02-06T18:39:03.368Z,10.40
2023-02-06T18:41:48.208Z,9.73
2023-02-06T18:44:14.729Z,10.95
2023-02-06T18:46:41.312Z,10.70
2023-02-06T18:49:07.864Z,9.52
2023-02-06T18:51:34.636Z,10.93
2023-02-06T18:54:01.319Z,11.98
2023-02-06T18:56:28.275Z,10.93
2023-02-06T18:58:55.616Z,9.77
2023-02-06T19:01:24.904Z,9.75
2023-02-06T19:03:53.270Z,10.35
2023-02-06T19:06:25.684Z,11.30
2023-02-06T19:08:52.184Z,11.10
2023-02-06T19:11:18.698Z,9.65
2023-02-06T19:13:45.469Z,8.80
2023-02-06T19:16:17.592Z,10.60
2023-02-06T19:18:46.573Z,10.30
2023-02-06T19:21:17.098Z,9.75
2023-02-06T19:23:45.201Z,11.05
2023-02-06T19:26:14.566Z,13.55
2023-02-06T19:28:42.494Z,9.48
2023-02-06T19:31:10.867Z,10.43
2023-02-06T19:33:39.304Z,10.45
2023-02-06T19:36:15.957Z,9.15
2023-02-06T19:38:43.386Z,11.35
2023-02-06T19:41:13.501Z,13.48
2023-02-06T19:46:13.169Z,13.07
2023-02-06T19:48:45.566Z,16.88
2023-02-06T19:51:30.542Z,15.88
2023-02-06T19:53:58.586Z,16.95
2023-02-06T19:56:38.224Z,16.15
2023-02-06T19:59:08.862Z,17.75
2023-02-06T20:01:36.064Z,14.35
2023-02-06T20:04:03.618Z,13.43
2023-02-06T20:06:34.880Z,13.05
2023-02-06T20:09:03.731Z,12.75
2023-02-06T20:11:31.611Z,12.27
2023-02-06T20:13:58.850Z,11.98
2023-02-06T20:16:29.582Z,13.18
2023-02-06T20:18:56.806Z,12.93
2023-02-06T20:21:31.271Z,12.85
2023-02-06T20:24:00.738Z,13.18
2023-02-06T20:26:30.479Z,13.75
2023-02-06T20:28:57.044Z,14.15
2023-02-06T20:31:23.768Z,11.75
2023-02-06T20:33:50.513Z,11.85
2023-02-06T20:36:23.216Z,10.80
2023-02-06T20:39:00.233Z,10.45
2023-02-06T20:41:31.089Z,10.10
2023-02-06T20:44:00.281Z,10.43
2023-02-06T20:46:29.676Z,10.73
2023-02-06T20:49:02.195Z,10.95
2023-02-06T20:51:29.905Z,9.60
2023-02-06T20:53:56.543Z,9.57
2023-02-06T20:56:25.151Z,11.10
2023-02-06T20:58:52.391Z,10.30
2023-02-06T21:01:22.377Z,11.75
2023-02-06T21:06:21.095Z,12.35
2023-02-06T21:08:50.138Z,11.57
2023-02-06T21:11:17.489Z,12.43
2023-02-06T21:13:44.017Z,12.13
2023-02-06T21:16:13.461Z,13.73
2023-02-06T21:18:42.498Z,13.30
2023-02-06T21:21:12.535Z,12.55
2023-02-06T21:23:41.139Z,10.90
2023-02-06T21:26:09.761Z,10.65
2023-02-06T21:28:37.095Z,10.13
2023-02-06T21:31:14.898Z,10.95
2023-02-06T21:33:41.756Z,10.50
2023-02-06T21:36:08.605Z,10.65
2023-02-06T21:38:36.377Z,11.45
2023-02-06T21:41:14.781Z,11.68
2023-02-06T21:43:41.821Z,12.32
2023-02-06T21:46:09.903Z,11.05
2023-02-06T21:48:36.825Z,13.52
2023-02-06T21:51:11.876Z,11.02
2023-02-06T21:53:38.942Z,11.45
2023-02-06T21:56:16.257Z,10.10
2023-02-06T21:58:43.319Z,11.18
2023-02-06T22:01:17.740Z,12.05
2023-02-06T22:03:45.780Z,10.02
2023-02-06T22:06:13.595Z,11.18
2023-02-06T22:08:43.234Z,11.55
2023-02-06T22:11:17.425Z,11.85
2023-02-06T22:13:44.968Z,11.40
2023-02-06T22:16:13.839Z,12.40
2023-02-06T22:18:41.420Z,13.90
2023-02-06T22:21:11.381Z,13.52
2023-02-06T22:26:04.829Z,14.85
2023-02-06T22:28:31.578Z,15.10
2023-02-06T22:31:08.526Z,15.35
2023-02-06T22:33:35.486Z,15.07
2023-02-06T22:36:10.332Z,13.77
2023-02-06T22:38:37.570Z,12.02
2023-02-06T22:41:06.848Z,11.93
2023-02-06T22:43:36.194Z,11.73
2023-02-06T22:46:03.955Z,12.55
2023-02-06T22:48:30.719Z,12.52
2023-02-06T22:50:57.259Z,12.57
2023-02-06T22:53:29.684Z,12.73
2023-02-06T22:56:20.453Z,12.25
2023-02-06T22:58:48.117Z,12.20
2023-02-06T23:01:16.286Z,13.57
2023-02-06T23:03:43.144Z,14.02
2023-02-06T23:06:11.209Z,13.82
2023-02-06T23:08:38.006Z,14.13
2023-02-06T23:11:05.876Z,13.23
2023-02-06T23:13:32.893Z,11.98
2023-02-06T23:16:00.009Z,13.27
2023-02-06T23:18:27.816Z,12.70
2023-02-06T23:21:00.026Z,12.93
2023-02-06T23:23:27.327Z,12.13
2023-02-06T23:25:53.950Z,12.88
2023-02-06T23:28:22.238Z,12.25
2023-02-06T23:30:48.806Z,11.63
2023-02-06T23:33:16.928Z,13.05
2023-02-06T23:35:43.877Z,12.40
2023-02-06T23:38:11.435Z,12.85
2023-02-06T23:40:38.232Z,11.90
2023-02-06T23:43:05.979Z,12.32
2023-02-06T23:45:33.269Z,10.52
2023-02-06T23:47:59.825Z,12.30
2023-02-06T23:50:27.022Z,11.77
2023-02-06T23:52:53.653Z,12.18
2023-02-06T23:55:20.897Z,12.50
2023-02-06T23:57:47.556Z,12.65
